Time;durP1;ratioP1;P1;durP2;ratioP2;P2;SDS_P1;SDS_P2;PMS_P1;PMS_P2;Temp;Humidity;BMP_temperature;BMP_pressure;BME280_temperature;BME280_humidity;BME280_pressure;Samples;Min_cycle;Max_cycle;Signal;HPM_P1;HPM_P2
2023/03/01 00:01:27;;;;;;;9.47;3.47;;;;;;;-2.90;88.11;102616.25;5014254;28;20424;-64
2023/03/01 00:03:55;;;;;;;9.13;4.00;;;;;;;-2.81;88.43;102615.28;5014188;28;20884;-64
2023/03/01 00:06:22;;;;;;;10.07;4.00;;;;;;;-2.84;87.62;102617.44;5013870;28;20486;-64
2023/03/01 00:08:49;;;;;;;12.03;4.20;;;;;;;-2.95;87.16;102615.09;5013554;28;20500;-64
2023/03/01 00:11:19;;;;;;;15.47;4.07;;;;;;;-3.09;87.79;102613.91;5013990;28;20806;-64
2023/03/01 00:13:47;;;;;;;11.70;4.10;;;;;;;-3.09;87.85;102606.78;5013916;28;20531;-64
2023/03/01 00:16:16;;;;;;;11.07;3.80;;;;;;;-3.11;89.46;102610.56;5013583;28;20530;-65
2023/03/01 00:18:43;;;;;;;12.50;5.03;;;;;;;-3.00;90.81;102593.53;5013760;28;20812;-64
2023/03/01 00:21:10;;;;;;;11.70;4.60;;;;;;;-3.05;90.40;102592.22;5013887;28;20442;-65
2023/03/01 00:23:36;;;;;;;13.83;4.53;;;;;;;-3.00;91.62;102593.53;5013813;28;20450;-64
2023/03/01 00:26:06;;;;;;;8.37;3.97;;;;;;;-2.96;90.10;102594.88;5013586;28;20583;-64
2023/03/01 00:28:35;;;;;;;11.53;3.87;;;;;;;-3.07;90.12;102588.03;5013844;28;20444;-65
2023/03/01 00:31:04;;;;;;;14.17;5.10;;;;;;;-3.10;90.13;102586.56;5013653;28;20494;-65
2023/03/01 00:33:31;;;;;;;14.70;4.90;;;;;;;-3.11;90.71;102586.69;5013187;28;20447;-65
2023/03/01 00:35:59;;;;;;;14.03;5.27;;;;;;;-3.08;90.91;102586.38;5013588;28;20463;-65
2023/03/01 00:38:25;;;;;;;12.70;5.27;;;;;;;-3.12;90.79;102585.88;5013571;28;20527;-65
2023/03/01 00:40:52;;;;;;;10.80;4.17;;;;;;;-3.02;89.45;102591.03;5013100;28;20477;-65
2023/03/01 00:43:19;;;;;;;13.90;5.17;;;;;;;-2.99;88.29;102596.03;5013278;28;20953;-65
2023/03/01 00:45:47;;;;;;;11.30;5.00;;;;;;;-3.09;88.96;102590.88;5013274;28;20436;-64
2023/03/01 00:48:13;;;;;;;11.17;3.83;;;;;;;-2.91;86.96;102587.28;5013356;28;20479;-65
2023/03/01 00:50:40;;;;;;;9.93;4.57;;;;;;;-2.87;86.58;102586.78;5013186;28;20503;-64
2023/03/01 00:53:07;;;;;;;9.53;4.43;;;;;;;-2.83;86.51;102590.78;5013428;28;20452;-64
2023/03/01 00:55:33;;;;;;;18.00;5.80;;;;;;;-2.85;86.50;102589.25;5013335;28;20534;-65
2023/03/01 00:58:00;;;;;;;14.47;6.20;;;;;;;-2.93;87.33;102587.41;5013282;28;20479;-66
2023/03/01 01:00:28;;;;;;;16.80;7.17;;;;;;;-3.10;88.57;102585.72;5013073;28;20488;-65
2023/03/01 01:02:56;;;;;;;12.93;6.80;;;;;;;-3.22;90.29;102571.94;5012915;28;20448;-65
2023/03/01 01:05:22;;;;;;;17.20;5.93;;;;;;;-3.32;90.90;102574.72;5012586;28;21012;-65
2023/03/01 01:07:49;;;;;;;12.93;6.90;;;;;;;-3.34;91.86;102574.03;5016671;28;20492;-65
2023/03/01 01:10:17;;;;;;;15.00;6.60;;;;;;;-3.30;92.38;102566.59;5017009;28;20474;-65
2023/03/01 01:12:45;;;;;;;18.63;6.57;;;;;;;-3.29;91.40;102570.91;5016749;28;20999;-65
2023/03/01 01:15:13;;;;;;;14.73;6.00;;;;;;;-3.33;92.01;102567.75;5017100;28;20471;-65
2023/03/01 01:17:40;;;;;;;13.77;5.93;;;;;;;-3.28;91.38;102567.25;5016756;28;20594;-65
2023/03/01 01:20:10;;;;;;;12.83;5.43;;;;;;;-3.21;90.48;102560.34;5017029;28;20554;-65
2023/03/01 01:22:37;;;;;;;20.63;6.83;;;;;;;-3.33;92.44;102554.50;5016993;28;20450;-65
2023/03/01 01:25:03;;;;;;;13.67;6.40;;;;;;;-3.39;91.94;102560.44;5016755;28;20444;-66
2023/03/01 01:27:30;;;;;;;18.10;7.23;;;;;;;-3.41;91.67;102548.34;5016580;28;20528;-65
2023/03/01 01:29:57;;;;;;;13.10;5.97;;;;;;;-3.52;92.41;102546.00;5016885;28;20468;-64
2023/03/01 01:32:23;;;;;;;12.60;5.70;;;;;;;-3.61;92.04;102534.53;5016944;28;20522;-63
2023/03/01 01:34:50;;;;;;;16.27;5.73;;;;;;;-3.59;92.10;102540.50;5016569;28;20960;-64
2023/03/01 01:37:18;;;;;;;15.20;6.20;;;;;;;-3.57;92.02;102536.72;5016765;28;20955;-65
2023/03/01 01:39:44;;;;;;;18.20;7.63;;;;;;;-3.52;91.94;102530.94;5016734;28;20478;-64
2023/03/01 01:42:15;;;;;;;14.50;5.30;;;;;;;-3.66;90.15;102532.38;5016740;28;20443;-64
2023/03/01 01:44:43;;;;;;;12.40;5.87;;;;;;;-3.70;90.16;102530.19;5016753;28;20517;-64
2023/03/01 01:47:18;;;;;;;16.70;6.60;;;;;;;-3.64;91.07;102526.91;5016560;28;20486;-64
2023/03/01 01:49:48;;;;;;;12.97;6.53;;;;;;;-3.62;89.47;102520.47;5016269;28;20474;-64
2023/03/01 01:52:21;;;;;;;12.70;6.30;;;;;;;-3.61;89.33;102516.00;5016191;28;20446;-64
2023/03/01 01:54:52;;;;;;;15.00;6.10;;;;;;;-3.52;88.37;102512.41;5016214;28;20935;-64
2023/03/01 01:57:24;;;;;;;17.60;6.10;;;;;;;-3.63;89.50;102516.16;5016692;28;20420;-64
2023/03/01 01:59:53;;;;;;;17.30;7.23;;;;;;;-3.77;90.20;102507.97;5016262;28;20570;-64
2023/03/01 02:02:21;;;;;;;20.60;7.80;;;;;;;-3.87;89.49;102511.56;5016341;28;20444;-64
2023/03/01 02:04:49;;;;;;;15.27;7.70;;;;;;;-3.85;90.38;102514.06;5016539;28;20448;-64
2023/03/01 02:07:17;;;;;;;11.27;5.90;;;;;;;-3.87;90.85;102518.69;5016253;28;20236;-64
2023/03/01 02:09:48;;;;;;;23.40;8.53;;;;;;;-3.73;91.88;102525.22;5016176;28;20492;-63
2023/03/01 02:12:15;;;;;;;14.27;6.97;;;;;;;-3.78;88.89;102530.97;5016712;28;20436;-64
2023/03/01 02:14:42;;;;;;;15.10;6.43;;;;;;;-3.84;89.12;102521.84;5016172;28;20432;-63
2023/03/01 02:17:08;;;;;;;13.37;6.20;;;;;;;-3.95;89.51;102516.81;5016025;28;20435;-64
2023/03/01 02:19:45;;;;;;;17.13;7.63;;;;;;;-3.93;90.89;102525.44;5015147;28;20470;-65
2023/03/01 02:22:21;;;;;;;16.90;7.27;;;;;;;-3.91;89.55;102528.75;5015965;28;20799;-63
2023/03/01 02:24:58;;;;;;;15.20;6.77;;;;;;;-4.00;89.76;102532.34;5015923;28;20777;-64
2023/03/01 02:27:34;;;;;;;13.50;6.23;;;;;;;-3.84;90.44;102536.91;5015586;28;21003;-64
2023/03/01 02:30:02;;;;;;;23.90;7.30;;;;;;;-3.85;89.97;102537.88;5015712;28;20514;-65
2023/03/01 02:32:28;;;;;;;13.63;6.87;;;;;;;-3.92;90.14;102532.41;5015904;28;20436;-64
2023/03/01 02:34:56;;;;;;;13.67;6.30;;;;;;;-3.90;89.03;102543.66;5015537;28;20450;-63
2023/03/01 02:37:25;;;;;;;16.47;7.63;;;;;;;-3.93;90.92;102543.97;5015498;28;20448;-64
2023/03/01 02:39:57;;;;;;;24.07;7.13;;;;;;;-3.92;92.48;102536.88;5015403;28;20831;-65
2023/03/01 02:42:29;;;;;;;17.37;6.97;;;;;;;-4.06;92.54;102533.81;5015537;28;20432;-65
2023/03/01 02:44:56;;;;;;;10.60;5.83;;;;;;;-4.01;92.00;102532.50;5015506;28;20424;-64
2023/03/01 02:47:24;;;;;;;17.63;7.27;;;;;;;-4.00;90.66;102523.59;5015410;28;20491;-65
2023/03/01 02:49:50;;;;;;;15.83;6.93;;;;;;;-4.06;90.47;102536.47;5015281;28;20888;-68
2023/03/01 02:52:44;;;;;;;15.87;7.30;;;;;;;-4.08;91.32;102537.59;5015271;28;20452;-68
2023/03/01 02:55:13;;;;;;;15.20;6.67;;;;;;;-3.96;92.25;102522.28;5011222;28;20467;-64
2023/03/01 02:57:43;;;;;;;16.35;6.65;;;;;;;-3.87;92.29;102522.16;5015095;28;20540;-63
2023/03/01 03:00:18;;;;;;;19.30;7.63;;;;;;;-3.88;90.95;102515.22;5014846;28;20267;-63
2023/03/01 03:02:47;;;;;;;20.30;7.93;;;;;;;-3.97;90.44;102510.03;5014804;28;20526;-63
2023/03/01 03:05:16;;;;;;;17.60;7.33;;;;;;;-3.89;90.03;102508.28;5014671;28;20451;-64
2023/03/01 03:07:45;;;;;;;15.73;6.23;;;;;;;-3.89;89.93;102508.28;5014828;28;20480;-63
2023/03/01 03:10:16;;;;;;;18.23;8.10;;;;;;;-3.75;89.37;102514.78;5014597;28;20543;-63
2023/03/01 03:12:43;;;;;;;14.73;6.13;;;;;;;-3.71;89.03;102515.31;5015213;28;20962;-64
2023/03/01 03:15:12;;;;;;;20.97;7.30;;;;;;;-3.71;88.63;102523.25;5014735;28;20532;-64
2023/03/01 03:17:41;;;;;;;15.97;7.10;;;;;;;-3.83;88.13;102518.22;5014724;28;20444;-64
2023/03/01 03:20:11;;;;;;;15.87;7.40;;;;;;;-3.94;88.88;102510.56;5015109;28;20498;-63
2023/03/01 03:22:39;;;;;;;19.65;8.85;;;;;;;-3.98;89.61;102514.50;5014912;28;20519;-63
2023/03/01 03:25:10;;;;;;;18.40;7.50;;;;;;;-4.03;90.82;102513.31;5014873;28;20205;-64
2023/03/01 03:27:37;;;;;;;15.80;6.63;;;;;;;-4.00;92.72;102505.88;5014721;28;20476;-63
2023/03/01 03:30:08;;;;;;;17.87;7.13;;;;;;;-3.92;92.15;102505.94;5013578;28;20467;-62
2023/03/01 03:32:35;;;;;;;16.20;7.23;;;;;;;-4.15;90.37;102492.41;5014452;28;20429;-63
2023/03/01 03:35:02;;;;;;;19.30;7.00;;;;;;;-4.23;90.98;102496.81;5014574;28;20964;-64
2023/03/01 03:40:19;;;;;;;20.13;7.27;;;;;;;-4.31;93.10;102498.41;5003608;28;20551;-63
2023/03/01 03:42:46;;;;;;;12.77;6.20;;;;;;;-4.32;92.25;102495.94;5014158;28;21017;-63
2023/03/01 03:45:13;;;;;;;16.30;7.60;;;;;;;-4.23;93.49;102486.25;5014123;28;20938;-64
2023/03/01 03:47:39;;;;;;;13.50;6.27;;;;;;;-4.13;93.65;102484.31;5013971;28;20484;-63
2023/03/01 03:50:06;;;;;;;16.23;7.10;;;;;;;-4.07;93.58;102483.69;5014023;28;20998;-64
2023/03/01 03:52:34;;;;;;;19.80;7.50;;;;;;;-4.14;93.09;102475.56;5014288;28;20446;-63
2023/03/01 03:55:01;;;;;;;19.87;7.33;;;;;;;-4.23;91.73;102473.03;5013873;28;20451;-64
2023/03/01 03:57:28;;;;;;;17.40;7.10;;;;;;;-4.21;90.09;102471.84;5014470;28;20446;-63
2023/03/01 03:59:54;;;;;;;16.30;7.80;;;;;;;-4.29;89.84;102470.97;5013800;28;20488;-64
2023/03/01 04:02:22;;;;;;;13.33;6.87;;;;;;;-4.28;90.32;102480.59;5013955;28;20453;-63
2023/03/01 04:04:50;;;;;;;11.03;5.33;;;;;;;-4.14;89.00;102477.38;5014082;28;20452;-63
2023/03/01 04:07:17;;;;;;;23.43;8.30;;;;;;;-4.22;88.83;102469.38;5014062;28;20483;-63
2023/03/01 04:09:45;;;;;;;13.83;6.90;;;;;;;-4.40;91.31;102469.44;5014191;28;20547;-63
2023/03/01 04:12:11;;;;;;;13.30;6.37;;;;;;;-4.39;91.62;102471.91;5013875;28;20440;-64
2023/03/01 04:14:38;;;;;;;17.07;8.07;;;;;;;-4.44;90.21;102471.56;5013894;28;20550;-62
2023/03/01 04:17:05;;;;;;;18.67;8.00;;;;;;;-4.42;89.82;102463.50;5013848;28;20466;-63
2023/03/01 04:19:35;;;;;;;16.90;5.50;;;;;;;-4.33;89.39;102471.31;5013431;28;20487;-62
2023/03/01 04:22:07;;;;;;;15.30;7.97;;;;;;;-4.45;90.95;102479.66;5013980;28;20535;-63
2023/03/01 04:24:33;;;;;;;14.73;6.50;;;;;;;-4.48;90.17;102469.38;5013786;28;20424;-62
2023/03/01 04:27:01;;;;;;;16.63;7.10;;;;;;;-4.50;90.04;102479.28;5013242;28;20531;-63
2023/03/01 04:29:28;;;;;;;17.00;8.03;;;;;;;-4.58;89.71;102480.06;5013452;28;20463;-61
2023/03/01 04:31:55;;;;;;;18.00;7.70;;;;;;;-4.61;90.76;102481.19;5013890;28;20448;-62
2023/03/01 04:34:21;;;;;;;18.37;7.53;;;;;;;-4.54;92.17;102464.72;5013626;28;20474;-63
2023/03/01 04:36:48;;;;;;;15.30;7.33;;;;;;;-4.58;89.63;102470.31;5013675;28;20454;-62
2023/03/01 04:39:15;;;;;;;12.90;6.20;;;;;;;-4.48;89.60;102467.56;5013432;28;20462;-63
2023/03/01 04:41:43;;;;;;;16.90;7.73;;;;;;;-4.49;89.40;102473.00;5014335;28;20444;-62
2023/03/01 04:44:10;;;;;;;24.13;6.87;;;;;;;-4.53;90.95;102476.94;5013364;28;20448;-62
2023/03/01 04:46:37;;;;;;;12.20;7.00;;;;;;;-4.61;89.70;102472.44;5013221;28;20447;-62
2023/03/01 04:49:04;;;;;;;17.57;7.77;;;;;;;-4.74;89.99;102474.63;5013101;28;20924;-62
2023/03/01 04:51:32;;;;;;;26.20;10.90;;;;;;;-4.85;90.79;102467.78;5013453;28;20436;-63
2023/03/01 04:54:00;;;;;;;25.57;10.23;;;;;;;-4.85;91.96;102470.44;5013437;28;20448;-65
2023/03/01 04:56:26;;;;;;;23.17;11.73;;;;;;;-4.73;92.66;102471.03;5013380;28;20443;-63
2023/03/01 04:58:54;;;;;;;27.33;11.60;;;;;;;-4.57;91.88;102466.66;5013132;28;20215;-63
2023/03/01 05:01:22;;;;;;;33.60;14.53;;;;;;;-4.64;89.30;102470.13;5013381;28;20522;-63
2023/03/01 05:03:51;;;;;;;38.30;14.63;;;;;;;-4.71;90.08;102469.88;5013078;28;20482;-63
2023/03/01 05:06:19;;;;;;;33.00;15.17;;;;;;;-4.68;89.67;102469.59;5013221;28;20455;-64
2023/03/01 05:08:46;;;;;;;35.37;15.93;;;;;;;-4.52;88.98;102466.22;5012732;28;21032;-64
2023/03/01 05:11:13;;;;;;;39.42;14.70;;;;;;;-4.39;88.52;102468.44;5013261;28;20531;-63
2023/03/01 05:13:40;;;;;;;27.70;13.73;;;;;;;-4.58;88.60;102470.31;5012900;28;20211;-64
2023/03/01 05:16:10;;;;;;;34.30;13.23;;;;;;;-4.61;91.54;102472.44;5013207;28;20794;-64
2023/03/01 05:18:39;;;;;;;26.30;13.00;;;;;;;-4.66;90.14;102461.50;5013077;28;20547;-64
2023/03/01 05:21:08;;;;;;;31.25;14.13;;;;;;;-4.74;89.60;102466.72;5013049;28;20444;-64
2023/03/01 05:23:35;;;;;;;25.27;13.00;;;;;;;-4.71;90.60;102463.75;5013136;28;20255;-63
2023/03/01 05:26:04;;;;;;;35.60;12.63;;;;;;;-4.72;90.45;102462.13;5012999;28;20444;-63
2023/03/01 05:28:31;;;;;;;29.60;13.00;;;;;;;-4.72;90.49;102454.19;5012920;28;20484;-64
2023/03/01 05:30:58;;;;;;;25.20;12.37;;;;;;;-4.82;89.34;102457.75;5012738;28;20560;-64
2023/03/01 05:33:25;;;;;;;27.73;12.50;;;;;;;-4.90;89.08;102462.97;5013279;28;20444;-65
2023/03/01 05:35:54;;;;;;;22.70;11.70;;;;;;;-4.81;89.22;102455.94;5013127;28;20447;-64
2023/03/01 05:38:22;;;;;;;27.00;12.70;;;;;;;-4.92;89.44;102461.44;5012999;28;20440;-65
2023/03/01 05:40:49;;;;;;;29.07;11.33;;;;;;;-4.91;89.27;102461.31;5012430;28;20471;-64
2023/03/01 05:43:17;;;;;;;33.33;10.80;;;;;;;-4.88;89.28;102458.34;5012550;28;20444;-64
2023/03/01 05:45:45;;;;;;;25.50;11.33;;;;;;;-4.83;90.38;102455.25;5012218;28;21040;-64
2023/03/01 05:48:12;;;;;;;22.80;10.52;;;;;;;-5.00;88.90;102451.66;5012468;28;20515;-64
2023/03/01 05:50:41;;;;;;;21.02;10.85;;;;;;;-4.95;90.05;102451.19;5012097;28;20314;-64
2023/03/01 05:53:11;;;;;;;22.87;10.50;;;;;;;-4.90;91.63;102444.47;5012829;28;20288;-65
2023/03/01 05:55:39;;;;;;;18.38;10.02;;;;;;;-4.79;90.08;102445.19;5016114;28;20522;-63
2023/03/01 05:58:07;;;;;;;29.90;11.68;;;;;;;-4.93;89.00;102444.75;5016235;28;20639;-65
2023/03/01 06:00:34;;;;;;;17.48;8.52;;;;;;;-4.95;89.91;102451.19;5015875;28;20236;-64
2023/03/01 06:03:02;;;;;;;20.43;10.77;;;;;;;-4.95;90.52;102452.03;5016089;28;20240;-69
2023/03/01 06:05:29;;;;;;;18.35;10.23;;;;;;;-4.94;90.29;102458.97;5016364;28;20540;-66
2023/03/01 06:07:58;;;;;;;23.20;11.03;;;;;;;-4.96;91.88;102458.28;5016275;28;20225;-65
2023/03/01 06:10:26;;;;;;;24.17;9.98;;;;;;;-4.87;92.27;102459.16;5016165;28;20495;-63
2023/03/01 06:12:53;;;;;;;27.90;10.03;;;;;;;-4.93;92.59;102452.69;5016226;28;20219;-65
2023/03/01 06:15:20;;;;;;;17.63;8.10;;;;;;;-4.92;92.48;102451.69;5016415;28;20480;-66
2023/03/01 06:17:47;;;;;;;26.02;8.55;;;;;;;-4.92;92.78;102459.63;5015827;28;20974;-65
2023/03/01 06:20:16;;;;;;;16.50;8.00;;;;;;;-4.76;91.35;102455.47;5016065;28;20233;-65
2023/03/01 06:22:43;;;;;;;19.50;9.30;;;;;;;-4.75;91.46;102455.31;5015764;28;20448;-66
2023/03/01 06:25:10;;;;;;;14.90;8.50;;;;;;;-4.73;92.37;102449.88;5015893;28;20442;-65
2023/03/01 06:27:39;;;;;;;21.03;10.23;;;;;;;-4.78;92.62;102446.84;5015576;28;20535;-65
2023/03/01 06:30:07;;;;;;;16.48;8.50;;;;;;;-4.76;92.35;102456.31;5015840;28;20472;-65
2023/03/01 06:32:34;;;;;;;17.67;8.07;;;;;;;-4.64;92.87;102454.25;5015527;28;20204;-66
2023/03/01 06:35:01;;;;;;;21.33;10.57;;;;;;;-4.50;93.45;102444.91;5016188;28;20212;-66
2023/03/01 06:37:27;;;;;;;19.60;10.17;;;;;;;-4.34;91.49;102458.22;5015670;28;20447;-65
2023/03/01 06:39:54;;;;;;;16.77;9.03;;;;;;;-4.20;89.32;102462.13;5015747;28;20467;-65
2023/03/01 06:42:20;;;;;;;25.63;12.27;;;;;;;-4.16;88.41;102463.44;5015638;28;20448;-66
2023/03/01 06:44:48;;;;;;;18.67;9.50;;;;;;;-4.12;88.81;102472.75;5015465;28;20444;-69
2023/03/01 06:47:15;;;;;;;22.53;9.07;;;;;;;-4.16;88.92;102474.03;5015599;28;20506;-66
2023/03/01 06:49:41;;;;;;;29.63;11.17;;;;;;;-4.27;89.86;102477.78;5015517;28;20492;-64
2023/03/01 06:52:08;;;;;;;21.67;10.20;;;;;;;-4.23;91.03;102465.91;5015432;28;20444;-64
2023/03/01 06:54:35;;;;;;;27.50;10.90;;;;;;;-4.20;90.57;102462.13;5015570;28;20452;-64
2023/03/01 06:57:01;;;;;;;21.47;10.30;;;;;;;-4.21;90.49;102471.03;5015110;28;20818;-63
2023/03/01 06:59:28;;;;;;;17.40;9.40;;;;;;;-4.15;90.19;102481.84;5014932;28;20857;-64
2023/03/01 07:01:56;;;;;;;21.73;9.97;;;;;;;-4.00;90.25;102482.06;5015235;28;20452;-64
2023/03/01 07:04:22;;;;;;;38.67;11.27;;;;;;;-4.07;91.09;102473.94;5015125;28;20444;-64
2023/03/01 07:06:54;;;;;;;22.85;10.52;;;;;;;-4.14;91.34;102467.63;5015131;28;20522;-64
2023/03/01 07:09:21;;;;;;;19.50;10.67;;;;;;;-4.13;92.23;102476.38;5015310;28;20319;-63
2023/03/01 07:11:48;;;;;;;22.40;10.80;;;;;;;-4.09;92.45;102472.44;5015438;28;20447;-64
2023/03/01 07:14:15;;;;;;;24.40;9.65;;;;;;;-4.01;91.92;102475.13;5015292;28;20459;-64
2023/03/01 07:16:42;;;;;;;14.57;7.63;;;;;;;-3.93;91.18;102485.75;5015085;28;20239;-69
2023/03/01 07:19:10;;;;;;;29.53;11.47;;;;;;;-3.75;91.40;102477.72;5015093;28;20468;-65
2023/03/01 07:21:38;;;;;;;24.77;10.90;;;;;;;-3.66;91.56;102479.41;5015094;28;20674;-65
2023/03/01 07:24:05;;;;;;;33.03;11.50;;;;;;;-3.44;92.67;102475.34;5015314;28;20664;-66
2023/03/01 07:26:32;;;;;;;23.20;9.73;;;;;;;-3.40;94.38;102471.38;5014737;28;21000;-65
2023/03/01 07:29:00;;;;;;;21.20;12.60;;;;;;;-3.29;93.59;102478.19;5014699;28;20491;-65
2023/03/01 07:31:27;;;;;;;19.50;10.43;;;;;;;-3.17;92.99;102476.88;5014808;28;20432;-66
2023/03/01 07:33:54;;;;;;;19.63;10.50;;;;;;;-3.01;92.96;102478.75;5014787;28;20205;-67
2023/03/01 07:36:22;;;;;;;27.73;10.53;;;;;;;-2.89;93.51;102479.22;5014904;28;20444;-66
2023/03/01 07:38:49;;;;;;;22.90;10.37;;;;;;;-2.84;93.52;102477.72;5014679;28;20452;-66
2023/03/01 07:41:16;;;;;;;28.90;11.00;;;;;;;-2.69;93.69;102474.44;5014575;28;20897;-66
2023/03/01 07:43:42;;;;;;;17.13;8.90;;;;;;;-2.54;93.08;102473.59;5014481;28;20452;-66
2023/03/01 07:46:09;;;;;;;20.97;9.40;;;;;;;-2.36;93.27;102470.75;5014396;28;20440;-66
2023/03/01 07:48:36;;;;;;;24.10;10.97;;;;;;;-2.36;93.89;102481.34;5013926;28;20578;-67
2023/03/01 07:51:04;;;;;;;15.30;7.77;;;;;;;-2.20;93.14;102475.19;5014355;28;20451;-67
2023/03/01 07:53:33;;;;;;;19.77;9.77;;;;;;;-2.08;93.11;102467.69;5014138;28;20945;-66
2023/03/01 07:56:05;;;;;;;24.37;10.53;;;;;;;-2.01;92.84;102470.50;5014479;28;20527;-67
2023/03/01 07:58:32;;;;;;;14.50;7.80;;;;;;;-1.88;92.97;102474.25;5014180;28;20451;-66
2023/03/01 08:01:02;;;;;;;18.73;7.37;;;;;;;-1.69;92.09;102475.66;5014157;28;20558;-66
2023/03/01 08:03:29;;;;;;;20.73;8.60;;;;;;;-1.51;91.08;102472.75;5014253;28;20468;-66
2023/03/01 08:05:55;;;;;;;18.80;9.23;;;;;;;-1.34;90.43;102470.84;5014291;28;20440;-66
2023/03/01 08:08:22;;;;;;;17.40;7.47;;;;;;;-1.22;90.63;102468.63;5013748;28;20487;-66
2023/03/01 08:10:50;;;;;;;22.27;9.77;;;;;;;-1.16;89.59;102475.88;5013776;28;20983;-66
2023/03/01 08:13:22;;;;;;;18.30;7.57;;;;;;;-1.08;89.18;102474.00;5014047;28;20482;-68
2023/03/01 08:15:48;;;;;;;18.90;7.83;;;;;;;-0.96;88.75;102466.44;5013372;28;20460;-67
2023/03/01 08:18:15;;;;;;;16.20;6.53;;;;;;;-0.81;88.08;102471.81;5013986;28;20480;-67
2023/03/01 08:20:42;;;;;;;21.70;6.97;;;;;;;-0.63;87.84;102467.00;5013801;28;20543;-67
2023/03/01 08:23:08;;;;;;;17.27;6.50;;;;;;;-0.49;87.27;102460.03;5013924;28;20448;-67
2023/03/01 08:25:35;;;;;;;14.93;5.87;;;;;;;-0.42;86.45;102471.63;5013894;28;20488;-69
2023/03/01 08:28:03;;;;;;;16.03;6.70;;;;;;;-0.32;86.27;102460.72;5013449;28;20917;-65
2023/03/01 08:30:30;;;;;;;12.83;5.20;;;;;;;-0.21;86.03;102452.28;5013602;28;20947;-67
2023/03/01 08:32:57;;;;;;;17.53;5.90;;;;;;;-0.09;85.66;102452.63;5013593;28;20530;-69
2023/03/01 08:35:24;;;;;;;13.90;5.00;;;;;;;0.10;85.54;102449.44;5013783;28;20447;-69
2023/03/01 08:37:50;;;;;;;11.90;4.73;;;;;;;0.29;84.54;102448.00;5013575;28;20440;-69
2023/03/01 08:40:17;;;;;;;10.33;4.93;;;;;;;0.46;83.58;102453.97;5013637;28;20469;-69
2023/03/01 08:42:43;;;;;;;22.23;6.13;;;;;;;0.57;82.59;102450.78;5013919;28;20455;-70
2023/03/01 08:45:13;;;;;;;13.87;5.27;;;;;;;0.73;82.54;102450.56;5013893;28;20483;-69
2023/03/01 08:47:40;;;;;;;9.00;4.00;;;;;;;0.90;81.89;102458.34;5013555;28;20539;-68
2023/03/01 08:50:08;;;;;;;12.93;5.13;;;;;;;1.06;81.03;102446.56;5013341;28;20488;-69
2023/03/01 08:52:34;;;;;;;12.37;5.10;;;;;;;1.14;80.23;102454.44;5013457;28;20450;-69
2023/03/01 08:55:02;;;;;;;13.60;5.50;;;;;;;1.26;79.84;102451.06;5013364;28;20553;-68
2023/03/01 08:57:28;;;;;;;13.57;4.90;;;;;;;1.45;79.51;102454.06;5013052;28;20448;-68
2023/03/01 08:59:56;;;;;;;17.00;4.87;;;;;;;1.52;78.62;102454.97;5012910;28;20471;-68
2023/03/01 09:02:24;;;;;;;12.90;4.93;;;;;;;1.62;78.66;102451.94;5012992;28;20941;-68
2023/03/01 09:04:50;;;;;;;12.90;4.33;;;;;;;1.79;78.21;102437.25;5013359;28;20530;-68
2023/03/01 09:07:17;;;;;;;12.87;5.30;;;;;;;1.89;76.72;102437.72;5013217;28;20450;-69
2023/03/01 09:09:43;;;;;;;12.60;4.60;;;;;;;2.05;76.55;102431.25;5013016;28;20583;-73
2023/03/01 09:12:10;;;;;;;10.87;4.40;;;;;;;2.14;75.84;102435.38;5013605;28;20440;-71
2023/03/01 09:14:38;;;;;;;10.20;4.17;;;;;;;2.31;75.40;102438.56;5013345;28;20531;-68
2023/03/01 09:17:05;;;;;;;13.70;4.50;;;;;;;2.44;73.49;102443.13;5013302;28;20451;-67
2023/03/01 09:19:33;;;;;;;11.77;4.77;;;;;;;2.52;72.33;102441.09;5013230;28;20452;-67
2023/03/01 09:21:59;;;;;;;13.57;4.47;;;;;;;2.68;71.38;102439.06;5013205;28;20511;-69
2023/03/01 09:24:26;;;;;;;12.27;4.50;;;;;;;2.83;70.95;102438.88;5012929;28;20941;-67
2023/03/01 09:26:57;;;;;;;9.63;3.57;;;;;;;2.91;70.43;102441.34;5013100;28;20518;-67
2023/03/01 09:29:24;;;;;;;8.10;3.33;;;;;;;3.10;69.76;102443.25;5015846;28;20515;-67
2023/03/01 09:31:51;;;;;;;11.70;3.53;;;;;;;3.22;68.93;102441.59;5016783;28;20443;-67
2023/03/01 09:34:22;;;;;;;9.83;3.70;;;;;;;3.21;66.01;102429.22;5016893;28;20444;-67
2023/03/01 09:36:51;;;;;;;13.83;3.27;;;;;;;3.30;66.19;102435.22;5016637;28;20860;-67
2023/03/01 09:39:18;;;;;;;7.57;2.37;;;;;;;3.42;65.13;102428.19;5016467;28;20452;-67
2023/03/01 09:41:50;;;;;;;7.97;3.10;;;;;;;3.57;64.09;102436.00;5016761;28;20448;-67
2023/03/01 09:44:31;;;;;;;9.40;2.77;;;;;;;3.69;62.97;102431.66;5016765;28;20436;-68
2023/03/01 09:46:58;;;;;;;8.87;2.40;;;;;;;3.80;60.76;102433.69;5016747;28;20440;-67
2023/03/01 09:49:28;;;;;;;8.67;2.50;;;;;;;3.86;60.26;102436.59;5016206;28;21011;-67
2023/03/01 09:52:04;;;;;;;8.03;3.30;;;;;;;3.92;60.11;102431.19;5016297;28;20476;-67
2023/03/01 09:54:31;;;;;;;9.73;2.63;;;;;;;4.08;61.03;102434.44;5016727;28;20432;-67
2023/03/01 09:57:08;;;;;;;7.13;2.40;;;;;;;4.07;60.89;102438.16;5016624;28;20887;-67
2023/03/01 09:59:48;;;;;;;8.40;2.37;;;;;;;4.08;60.99;102437.97;5016194;28;20489;-67
2023/03/01 10:02:25;;;;;;;8.77;2.77;;;;;;;4.12;60.45;102438.34;5016542;28;20454;-67
2023/03/01 10:04:55;;;;;;;10.50;2.70;;;;;;;4.19;60.77;102431.91;5016484;28;20435;-67
2023/03/01 10:07:31;;;;;;;7.77;2.47;;;;;;;4.34;60.09;102436.19;5016553;28;20471;-67
2023/03/01 10:10:00;;;;;;;6.63;2.10;;;;;;;4.50;59.88;102438.38;5015885;28;20577;-67
2023/03/01 10:12:33;;;;;;;6.87;1.63;;;;;;;4.62;58.12;102444.72;5016265;28;20450;-67
2023/03/01 10:15:07;;;;;;;7.70;2.00;;;;;;;4.74;57.90;102443.00;5015959;28;20432;-68
2023/03/01 10:17:38;;;;;;;7.20;1.70;;;;;;;4.84;57.77;102444.38;5016259;28;20490;-67
2023/03/01 10:20:27;;;;;;;7.60;1.70;;;;;;;4.83;57.85;102448.94;5016071;28;20464;-67
2023/03/01 10:22:55;;;;;;;6.87;1.73;;;;;;;4.84;56.29;102447.06;5008924;28;20827;-67
2023/03/01 10:25:37;;;;;;;7.00;2.27;;;;;;;4.95;56.77;102438.31;5015712;28;20543;-67
2023/03/01 10:28:11;;;;;;;7.27;2.07;;;;;;;5.07;55.97;102436.56;5015734;28;20471;-67
2023/03/01 10:30:42;;;;;;;6.57;1.90;;;;;;;5.17;56.11;102436.91;5015834;28;20510;-67
2023/03/01 10:33:17;;;;;;;7.87;1.97;;;;;;;5.15;56.09;102430.13;5015612;28;20436;-68
2023/03/01 10:35:44;;;;;;;15.33;2.53;;;;;;;5.23;56.96;102421.78;5015928;28;20813;-67
2023/03/01 10:38:15;;;;;;;8.17;1.83;;;;;;;5.35;57.38;102420.00;5016078;28;20440;-67
2023/03/01 10:40:52;;;;;;;8.70;2.10;;;;;;;5.47;57.13;102423.63;5015252;28;20595;-67
2023/03/01 10:43:20;;;;;;;5.50;1.70;;;;;;;5.55;56.59;102419.84;5015668;28;20434;-67
2023/03/01 10:45:47;;;;;;;7.40;1.87;;;;;;;5.70;55.66;102412.22;5015716;28;20644;-67
2023/03/01 10:48:17;;;;;;;5.73;1.57;;;;;;;5.65;54.21;102409.38;5015859;28;20461;-68
2023/03/01 10:50:46;;;;;;;6.23;1.80;;;;;;;5.74;54.50;102408.03;5015456;28;20591;-67
2023/03/01 10:53:26;;;;;;;8.60;1.80;;;;;;;5.76;54.08;102408.66;5015502;28;20543;-68
2023/03/01 10:56:02;;;;;;;7.40;2.33;;;;;;;5.82;54.27;102410.44;5015277;28;20468;-67
2023/03/01 10:58:29;;;;;;;5.67;1.37;;;;;;;5.92;54.00;102401.06;5015465;28;20451;-68
2023/03/01 11:00:57;;;;;;;7.90;1.80;;;;;;;6.18;52.84;102406.13;5014922;28;21071;-67
2023/03/01 11:03:26;;;;;;;7.10;1.80;;;;;;;6.38;52.76;102396.97;5015359;28;20451;-68
2023/03/01 11:05:56;;;;;;;5.60;1.70;;;;;;;6.54;52.09;102401.69;5015616;28;20455;-67
2023/03/01 11:08:37;;;;;;;7.43;1.70;;;;;;;6.68;51.62;102403.13;5015489;28;20510;-68
2023/03/01 11:11:22;;;;;;;6.83;1.80;;;;;;;6.84;51.30;102401.66;5015485;28;20563;-69
2023/03/01 11:13:55;;;;;;;7.20;2.40;;;;;;;6.92;50.94;102384.34;5015419;28;20454;-68
2023/03/01 11:16:32;;;;;;;8.10;1.60;;;;;;;6.88;50.07;102377.78;5015490;28;20523;-68
2023/03/01 11:19:05;;;;;;;6.13;1.27;;;;;;;6.98;50.34;102383.41;5015176;28;20888;-67
2023/03/01 11:21:34;;;;;;;6.10;1.40;;;;;;;7.10;49.13;102368.09;5014867;28;20902;-68
2023/03/01 11:24:05;;;;;;;5.17;1.50;;;;;;;7.32;48.26;102374.53;5014984;28;20452;-68
2023/03/01 11:26:35;;;;;;;5.17;1.33;;;;;;;7.41;46.28;102375.00;5014865;28;20432;-69
2023/03/01 11:29:08;;;;;;;6.23;1.60;;;;;;;7.73;46.44;102371.91;5015119;28;20495;-69